Siler City Muni, Siler City,, NC

1:38 AM EDT on May 30, 2017 (GMT -0400)
Siler City Muni, Siler City,

Weather History for K5W8 - April, 2014

Change the Weather History Date:

Saturday, April 26, 2014

  Actual Average (KBUY) Record (KBUY)
Temperature  
Mean Temperature 61 °F -  
Max Temperature 79 °F 72 °F 92 °F (1960)
Min Temperature 43 °F 48 °F 39 °F (1972)
Degree Days  
Heating Degree Days 4    
Growing Degree Days 11 (Base 50)    
Moisture  
Dew Point 46 °F    
Average Humidity 64    
Maximum Humidity 100    
Minimum Humidity 25    
Precipitation  
Precipitation 0.00 in - - ()
Sea Level Pressure  
Sea Level Pressure 29.95 in    
Wind  
Wind Speed 2 mph (WSW)    
Max Wind Speed 13 mph    
Max Gust Speed 16 mph    
Visibility 10 miles    
Events      
Averages and records for this station are not official NWS values.
T = Trace of Precipitation, MM = Missing Value Source: NWS Daily Summary

Daily Weather History Graph

Daily Weather History Graph

Search for Another Location

Airport or City:

Trip Planner

Search our weather history database for the weather conditions in past years. The results will help you decide how hot, cold, wet, or windy it might be!

Date:

Astronomy

Apr. 26, 2014 Rise Set
Actual Time 6:31 AM EDT 8:00 PM EDT
Civil Twilight 6:04 AM EDT 8:27 PM EDT
Nautical Twilight 5:32 AM EDT 8:59 PM EDT
Astronomical Twilight 4:58 AM EDT 9:34 PM EDT
Moon 4:48 AM EDT (4/26) 5:32 PM EDT (4/26)
Length of Visible Light 14h 22m
Length of Day
13h 28m
Waning Crescent, 8% of the Moon is Illuminated
Apr 26
Waning Crescent
Apr 29
New
May 6
First Quarter
May 14
Full
May 21
Last Quarter

Hourly Weather History & Observations

Time (EDT) Temp. Dew Point Humidity Pressure Visibility Wind Dir Wind Speed Gust Speed Precip Events Conditions
12:15 AM 52.9 °F 52.9 °F 100% 29.86 in 7.0 mi Calm Calm - N/A   Scattered Clouds
12:35 AM 52.5 °F 52.5 °F 100% 29.87 in 10.0 mi Calm Calm - N/A   Scattered Clouds
12:55 AM 51.6 °F 51.6 °F 100% 29.88 in 10.0 mi Calm Calm - N/A   Clear
1:15 AM 51.4 °F 51.4 °F 100% 29.88 in 10.0 mi Calm Calm - N/A   Clear
1:35 AM 50.9 °F 50.9 °F 100% 29.88 in 10.0 mi Calm Calm - N/A   Clear
1:55 AM 51.3 °F 51.3 °F 100% 29.88 in 10.0 mi West 3.5 mph - N/A   Clear
2:15 AM 53.8 °F 52.2 °F 94% 29.88 in 10.0 mi WNW 3.5 mph - N/A   Clear
2:35 AM 54.3 °F 52.0 °F 92% 29.88 in 10.0 mi WNW 3.5 mph - N/A   Clear
2:55 AM 54.5 °F 51.8 °F 91% 29.89 in 10.0 mi Calm Calm - N/A   Clear
3:15 AM 52.0 °F 50.4 °F 94% 29.88 in 10.0 mi Calm Calm - N/A   Clear
3:35 AM 51.6 °F 49.1 °F 91% 29.89 in 10.0 mi Calm Calm - N/A   Clear
3:55 AM 47.1 °F 46.8 °F 99% 29.90 in 10.0 mi Calm Calm - N/A   Clear
4:15 AM 50.5 °F 49.3 °F 95% 29.90 in 10.0 mi Calm Calm - N/A   Clear
4:30 AM 49.5 °F 48.6 °F 97% 29.91 in 10.0 mi WNW 3.5 mph - N/A   Clear
4:55 AM 50.5 °F 47.7 °F 90% 29.93 in 10.0 mi WNW 3.5 mph - N/A   Clear
5:15 AM 51.1 °F 47.1 °F 86% 29.94 in 10.0 mi Calm Calm - N/A   Clear
5:35 AM 46.8 °F 44.8 °F 93% 29.95 in 10.0 mi Calm Calm - N/A   Clear
5:55 AM 44.6 °F 44.4 °F 99% 29.96 in 7.0 mi Calm Calm - N/A   Clear
6:15 AM 44.8 °F 44.8 °F 100% 29.97 in 10.0 mi Calm Calm - N/A   Clear
6:35 AM 44.1 °F 44.1 °F 100% 29.98 in 5.0 mi Calm Calm - N/A   Clear
6:55 AM 43.2 °F 43.2 °F 100% 29.99 in 1.0 mi Calm Calm - N/A   Mist
7:15 AM 44.8 °F 44.8 °F 100% 30.00 in 10.0 mi Calm Calm - N/A   Clear
7:35 AM 46.8 °F 46.8 °F 100% 30.01 in 10.0 mi Calm Calm - N/A   Clear
7:55 AM 50.7 °F 50.4 °F 99% 30.01 in 10.0 mi Calm Calm - N/A   Clear
8:15 AM 54.1 °F 50.2 °F 86% 30.02 in 10.0 mi Calm Calm - N/A   Clear
8:35 AM 55.8 °F 47.5 °F 74% 30.02 in 10.0 mi Calm Calm - N/A   Clear
8:55 AM 55.9 °F 51.4 °F 85% 30.02 in 10.0 mi Calm Calm - N/A   Clear
9:15 AM 58.6 °F 49.8 °F 72% 30.02 in 10.0 mi Calm Calm - N/A   Clear
9:35 AM 60.4 °F 48.6 °F 65% 30.02 in 10.0 mi West 3.5 mph - N/A   Clear
10:15 AM 63.5 °F 46.8 °F 54% 30.03 in 10.0 mi WSW 6.9 mph - N/A   Clear
10:35 AM 64.4 °F 47.5 °F 54% 30.02 in 10.0 mi WSW 6.9 mph - N/A   Clear
10:55 AM 65.8 °F 45.0 °F 47% 30.02 in 10.0 mi West 6.9 mph - N/A   Clear
11:15 AM 66.7 °F 44.4 °F 44% 30.01 in 10.0 mi SW 6.9 mph - N/A   Clear
11:35 AM 68.0 °F 45.0 °F 43% 30.02 in 10.0 mi WNW 4.6 mph - N/A   Clear
11:55 AM 68.5 °F 45.0 °F 43% 30.01 in 10.0 mi WSW 3.5 mph - N/A   Clear
12:15 PM 69.4 °F 45.1 °F 42% 30.00 in 10.0 mi West 3.5 mph - N/A   Clear
12:35 PM 70.7 °F 45.1 °F 40% 29.99 in 10.0 mi WNW 4.6 mph - N/A   Clear
12:55 PM 71.6 °F 45.1 °F 39% 29.98 in 10.0 mi WSW 4.6 mph - N/A   Clear
1:15 PM 73.0 °F 45.7 °F 38% 29.98 in 10.0 mi South 4.6 mph - N/A   Clear
1:35 PM 75.2 °F 42.6 °F 31% 29.97 in 10.0 mi West 4.6 mph - N/A   Clear
1:55 PM 75.4 °F 41.5 °F 30% 29.97 in 10.0 mi West 3.5 mph - N/A   Clear
2:15 PM 75.6 °F 40.3 °F 28% 29.96 in 10.0 mi SSW 5.8 mph - N/A   Clear
2:35 PM 76.8 °F 41.0 °F 28% 29.96 in 10.0 mi WSW 5.8 mph - N/A   Clear
2:55 PM 77.5 °F 44.8 °F 31% 29.96 in 10.0 mi WSW 6.9 mph - N/A   Clear
3:15 PM 78.1 °F 42.6 °F 28% 29.95 in 10.0 mi SSW 8.1 mph - N/A   Clear
3:35 PM 78.8 °F 41.5 °F 26% 29.94 in 10.0 mi West 8.1 mph - N/A   Clear
3:55 PM 78.8 °F 41.7 °F 27% 29.94 in 10.0 mi WSW 12.7 mph 16.1 mph N/A   Clear
4:15 PM 78.6 °F 40.8 °F 26% 29.93 in 10.0 mi West 5.8 mph - N/A   Clear
4:35 PM 78.8 °F 40.1 °F 25% 29.93 in 10.0 mi SW 10.4 mph 16.1 mph N/A   Clear
4:50 PM 78.8 °F 40.3 °F 25% 29.93 in 10.0 mi SW 11.5 mph 16.1 mph N/A   Clear
5:15 PM 79.3 °F 41.4 °F 26% 29.92 in 10.0 mi WSW 6.9 mph - N/A   Clear
5:35 PM 79.3 °F 41.2 °F 26% 29.92 in 10.0 mi SW 10.4 mph 16.1 mph N/A   Clear
5:55 PM 79.0 °F 41.5 °F 26% 29.92 in 10.0 mi SW 9.2 mph - N/A   Clear
6:15 PM 78.3 °F 40.5 °F 26% 29.92 in 10.0 mi SSW 8.1 mph 16.1 mph N/A   Clear
6:35 PM 77.9 °F 40.8 °F 27% 29.92 in 10.0 mi SW 6.9 mph - N/A   Clear
6:55 PM 77.4 °F 41.4 °F 28% 29.92 in 10.0 mi SW 8.1 mph - N/A   Clear
7:15 PM 76.1 °F 41.9 °F 29% 29.92 in 10.0 mi SW 5.8 mph - N/A   Clear
7:35 PM 74.3 °F 41.9 °F 31% 29.92 in 10.0 mi SW 5.8 mph - N/A   Clear
7:55 PM 72.5 °F 42.6 °F 34% 29.92 in 10.0 mi Calm Calm - N/A   Clear
8:15 PM 70.0 °F 43.7 °F 39% 29.92 in 10.0 mi SSW 4.6 mph - N/A   Clear
8:35 PM 63.1 °F 47.5 °F 57% 29.93 in 10.0 mi Calm Calm - N/A   Clear
8:55 PM 61.9 °F 48.4 °F 61% 29.93 in 10.0 mi Calm Calm - N/A   Clear
9:15 PM 61.0 °F 48.2 °F 63% 29.93 in 10.0 mi Calm Calm - N/A   Clear
9:35 PM 58.8 °F 48.9 °F 70% 29.94 in 10.0 mi Calm Calm - N/A   Clear
10:15 PM 56.5 °F 48.7 °F 75% 29.94 in 10.0 mi Calm Calm - N/A   Clear
10:35 PM 56.3 °F 48.7 °F 76% 29.95 in 10.0 mi Calm Calm - N/A   Clear
10:55 PM 55.6 °F 48.2 °F 76% 29.95 in 10.0 mi Calm Calm - N/A   Clear
11:15 PM 54.3 °F 47.8 °F 79% 29.94 in 10.0 mi Calm Calm - N/A   Clear
11:30 PM 54.0 °F 47.5 °F 79% 29.94 in 10.0 mi Calm Calm - N/A   Clear
11:55 PM 51.8 °F 47.3 °F 85% 29.95 in 10.0 mi Calm Calm - N/A   Clear